sensor_id;sensor_type;location;lat;lon;timestamp;P1;durP1;ratioP1;P2;durP2;ratioP2
53299;SDS011;39187;48.476;8.310;2023-03-12T00:01:29;6.27;;;2.13;;
53299;SDS011;39187;48.476;8.310;2023-03-12T00:03:57;2.57;;;2.37;;
53299;SDS011;39187;48.476;8.310;2023-03-12T00:06:25;2.30;;;2.20;;
53299;SDS011;39187;48.476;8.310;2023-03-12T00:08:51;6.17;;;2.40;;
53299;SDS011;39187;48.476;8.310;2023-03-12T00:11:17;2.10;;;2.00;;
53299;SDS011;39187;48.476;8.310;2023-03-12T00:13:52;1.53;;;1.43;;
53299;SDS011;39187;48.476;8.310;2023-03-12T00:16:19;1.63;;;1.53;;
53299;SDS011;39187;48.476;8.310;2023-03-12T00:18:49;2.60;;;1.67;;
53299;SDS011;39187;48.476;8.310;2023-03-12T00:21:16;7.20;;;2.40;;
53299;SDS011;39187;48.476;8.310;2023-03-12T00:23:42;2.50;;;2.30;;
53299;SDS011;39187;48.476;8.310;2023-03-12T00:26:09;3.57;;;2.50;;
53299;SDS011;39187;48.476;8.310;2023-03-12T00:28:37;3.53;;;2.13;;
53299;SDS011;39187;48.476;8.310;2023-03-12T00:31:11;4.03;;;2.23;;
53299;SDS011;39187;48.476;8.310;2023-03-12T00:33:40;4.30;;;2.93;;
53299;SDS011;39187;48.476;8.310;2023-03-12T00:36:05;7.13;;;3.23;;
53299;SDS011;39187;48.476;8.310;2023-03-12T00:38:31;6.63;;;3.10;;
53299;SDS011;39187;48.476;8.310;2023-03-12T00:40:57;3.30;;;2.30;;
53299;SDS011;39187;48.476;8.310;2023-03-12T00:43:22;4.40;;;3.17;;
53299;SDS011;39187;48.476;8.310;2023-03-12T00:45:47;4.87;;;3.13;;
53299;SDS011;39187;48.476;8.310;2023-03-12T00:48:13;2.90;;;2.73;;
53299;SDS011;39187;48.476;8.310;2023-03-12T00:50:38;3.27;;;2.83;;
53299;SDS011;39187;48.476;8.310;2023-03-12T00:53:04;4.87;;;3.37;;
53299;SDS011;39187;48.476;8.310;2023-03-12T00:55:30;3.30;;;3.10;;
53299;SDS011;39187;48.476;8.310;2023-03-12T00:57:55;2.80;;;2.60;;
53299;SDS011;39187;48.476;8.310;2023-03-12T01:00:21;7.13;;;3.60;;
53299;SDS011;39187;48.476;8.310;2023-03-12T01:02:46;4.43;;;3.10;;
53299;SDS011;39187;48.476;8.310;2023-03-12T01:05:12;3.97;;;3.73;;
53299;SDS011;39187;48.476;8.310;2023-03-12T01:07:38;5.60;;;4.37;;
53299;SDS011;39187;48.476;8.310;2023-03-12T01:10:04;7.10;;;4.67;;
53299;SDS011;39187;48.476;8.310;2023-03-12T01:12:31;5.87;;;5.37;;
53299;SDS011;39187;48.476;8.310;2023-03-12T01:14:56;5.47;;;4.97;;
53299;SDS011;39187;48.476;8.310;2023-03-12T01:17:22;7.73;;;6.97;;
53299;SDS011;39187;48.476;8.310;2023-03-12T01:19:47;7.13;;;6.63;;
53299;SDS011;39187;48.476;8.310;2023-03-12T01:22:13;8.77;;;7.90;;
53299;SDS011;39187;48.476;8.310;2023-03-12T01:24:39;8.10;;;7.23;;
53299;SDS011;39187;48.476;8.310;2023-03-12T01:27:04;9.23;;;7.13;;
53299;SDS011;39187;48.476;8.310;2023-03-12T01:29:30;8.30;;;7.63;;
53299;SDS011;39187;48.476;8.310;2023-03-12T01:31:55;9.90;;;9.10;;
53299;SDS011;39187;48.476;8.310;2023-03-12T01:34:21;7.30;;;6.80;;
53299;SDS011;39187;48.476;8.310;2023-03-12T01:36:46;7.83;;;7.20;;
53299;SDS011;39187;48.476;8.310;2023-03-12T01:39:12;8.53;;;7.70;;
53299;SDS011;39187;48.476;8.310;2023-03-12T01:41:38;9.47;;;8.53;;
53299;SDS011;39187;48.476;8.310;2023-03-12T01:44:04;9.57;;;7.60;;
53299;SDS011;39187;48.476;8.310;2023-03-12T01:51:42;8.00;;;7.27;;
53299;SDS011;39187;48.476;8.310;2023-03-12T01:54:12;8.63;;;7.93;;
53299;SDS011;39187;48.476;8.310;2023-03-12T01:56:42;12.10;;;9.53;;
53299;SDS011;39187;48.476;8.310;2023-03-12T02:01:55;17.53;;;8.57;;
53299;SDS011;39187;48.476;8.310;2023-03-12T02:04:21;9.60;;;8.80;;
53299;SDS011;39187;48.476;8.310;2023-03-12T02:09:41;12.90;;;9.23;;
53299;SDS011;39187;48.476;8.310;2023-03-12T02:12:10;10.33;;;9.33;;
53299;SDS011;39187;48.476;8.310;2023-03-12T02:14:36;12.70;;;9.13;;
53299;SDS011;39187;48.476;8.310;2023-03-12T02:17:03;10.23;;;9.30;;
53299;SDS011;39187;48.476;8.310;2023-03-12T02:21:54;12.17;;;8.90;;
53299;SDS011;39187;48.476;8.310;2023-03-12T02:24:24;23.20;;;10.10;;
53299;SDS011;39187;48.476;8.310;2023-03-12T02:26:56;14.97;;;10.50;;
53299;SDS011;39187;48.476;8.310;2023-03-12T02:29:23;17.63;;;10.60;;
53299;SDS011;39187;48.476;8.310;2023-03-12T02:31:52;11.13;;;10.13;;
53299;SDS011;39187;48.476;8.310;2023-03-12T02:34:20;14.43;;;12.80;;
53299;SDS011;39187;48.476;8.310;2023-03-12T02:36:46;14.00;;;10.50;;
53299;SDS011;39187;48.476;8.310;2023-03-12T02:39:13;14.20;;;11.83;;
53299;SDS011;39187;48.476;8.310;2023-03-12T02:41:43;13.70;;;11.30;;
53299;SDS011;39187;48.476;8.310;2023-03-12T02:44:20;20.10;;;12.10;;
53299;SDS011;39187;48.476;8.310;2023-03-12T02:46:49;19.30;;;12.60;;
53299;SDS011;39187;48.476;8.310;2023-03-12T02:49:17;11.03;;;9.97;;
53299;SDS011;39187;48.476;8.310;2023-03-12T02:51:45;14.63;;;11.10;;
53299;SDS011;39187;48.476;8.310;2023-03-12T02:54:13;15.90;;;10.83;;
53299;SDS011;39187;48.476;8.310;2023-03-12T02:56:40;10.17;;;9.13;;
53299;SDS011;39187;48.476;8.310;2023-03-12T02:59:06;10.90;;;9.50;;
53299;SDS011;39187;48.476;8.310;2023-03-12T03:01:32;10.30;;;9.30;;
53299;SDS011;39187;48.476;8.310;2023-03-12T03:03:58;10.97;;;7.93;;
53299;SDS011;39187;48.476;8.310;2023-03-12T03:06:25;9.73;;;8.87;;
53299;SDS011;39187;48.476;8.310;2023-03-12T03:08:51;8.67;;;7.83;;
53299;SDS011;39187;48.476;8.310;2023-03-12T03:11:17;8.17;;;7.53;;
53299;SDS011;39187;48.476;8.310;2023-03-12T03:13:43;9.27;;;8.50;;
53299;SDS011;39187;48.476;8.310;2023-03-12T03:16:09;10.47;;;8.37;;
53299;SDS011;39187;48.476;8.310;2023-03-12T03:18:36;11.83;;;7.03;;
53299;SDS011;39187;48.476;8.310;2023-03-12T03:21:05;7.80;;;7.00;;
53299;SDS011;39187;48.476;8.310;2023-03-12T03:23:33;6.90;;;6.40;;
53299;SDS011;39187;48.476;8.310;2023-03-12T03:25:59;8.80;;;7.80;;
53299;SDS011;39187;48.476;8.310;2023-03-12T03:28:25;7.30;;;6.80;;
53299;SDS011;39187;48.476;8.310;2023-03-12T03:30:53;10.50;;;7.90;;
53299;SDS011;39187;48.476;8.310;2023-03-12T03:33:26;6.60;;;6.17;;
53299;SDS011;39187;48.476;8.310;2023-03-12T03:35:53;5.80;;;5.50;;
53299;SDS011;39187;48.476;8.310;2023-03-12T03:38:20;6.70;;;6.10;;
53299;SDS011;39187;48.476;8.310;2023-03-12T03:40:46;7.37;;;6.50;;
53299;SDS011;39187;48.476;8.310;2023-03-12T03:43:12;5.90;;;5.50;;
53299;SDS011;39187;48.476;8.310;2023-03-12T03:45:37;10.27;;;6.97;;
53299;SDS011;39187;48.476;8.310;2023-03-12T03:48:03;8.13;;;7.17;;
53299;SDS011;39187;48.476;8.310;2023-03-12T03:50:29;5.90;;;5.50;;
53299;SDS011;39187;48.476;8.310;2023-03-12T03:52:54;6.73;;;6.10;;
53299;SDS011;39187;48.476;8.310;2023-03-12T03:55:20;6.83;;;5.80;;
53299;SDS011;39187;48.476;8.310;2023-03-12T03:57:46;4.93;;;4.63;;
53299;SDS011;39187;48.476;8.310;2023-03-12T04:00:12;6.00;;;5.70;;
53299;SDS011;39187;48.476;8.310;2023-03-12T04:02:42;5.20;;;4.90;;
53299;SDS011;39187;48.476;8.310;2023-03-12T04:05:08;4.90;;;4.43;;
53299;SDS011;39187;48.476;8.310;2023-03-12T04:07:34;4.10;;;3.90;;
53299;SDS011;39187;48.476;8.310;2023-03-12T04:10:01;4.40;;;4.10;;
53299;SDS011;39187;48.476;8.310;2023-03-12T04:12:27;3.53;;;3.23;;
53299;SDS011;39187;48.476;8.310;2023-03-12T04:14:53;3.97;;;3.67;;
53299;SDS011;39187;48.476;8.310;2023-03-12T04:17:19;3.57;;;3.37;;
53299;SDS011;39187;48.476;8.310;2023-03-12T04:19:45;4.50;;;3.00;;
53299;SDS011;39187;48.476;8.310;2023-03-12T04:22:10;2.80;;;2.70;;
53299;SDS011;39187;48.476;8.310;2023-03-12T04:24:36;2.80;;;2.60;;
53299;SDS011;39187;48.476;8.310;2023-03-12T04:27:02;2.83;;;2.63;;
53299;SDS011;39187;48.476;8.310;2023-03-12T04:29:27;2.43;;;2.33;;
53299;SDS011;39187;48.476;8.310;2023-03-12T04:31:53;3.07;;;2.97;;
53299;SDS011;39187;48.476;8.310;2023-03-12T04:34:18;2.73;;;2.63;;
53299;SDS011;39187;48.476;8.310;2023-03-12T04:36:44;3.50;;;3.30;;
53299;SDS011;39187;48.476;8.310;2023-03-12T04:39:11;3.77;;;2.67;;
53299;SDS011;39187;48.476;8.310;2023-03-12T04:41:37;3.43;;;2.00;;
53299;SDS011;39187;48.476;8.310;2023-03-12T04:44:03;2.90;;;2.80;;
53299;SDS011;39187;48.476;8.310;2023-03-12T04:46:29;3.20;;;3.10;;
53299;SDS011;39187;48.476;8.310;2023-03-12T04:48:55;3.80;;;3.50;;
53299;SDS011;39187;48.476;8.310;2023-03-12T04:51:22;2.70;;;2.60;;
53299;SDS011;39187;48.476;8.310;2023-03-12T04:53:48;4.07;;;3.70;;
53299;SDS011;39187;48.476;8.310;2023-03-12T04:56:13;5.20;;;4.70;;
53299;SDS011;39187;48.476;8.310;2023-03-12T04:58:39;3.37;;;3.27;;
53299;SDS011;39187;48.476;8.310;2023-03-12T05:01:04;3.57;;;3.37;;
53299;SDS011;39187;48.476;8.310;2023-03-12T05:03:30;3.77;;;3.57;;
53299;SDS011;39187;48.476;8.310;2023-03-12T05:05:56;3.63;;;3.33;;
53299;SDS011;39187;48.476;8.310;2023-03-12T05:08:22;3.77;;;3.57;;
53299;SDS011;39187;48.476;8.310;2023-03-12T05:10:48;3.57;;;3.17;;
53299;SDS011;39187;48.476;8.310;2023-03-12T05:13:18;3.47;;;3.37;;
53299;SDS011;39187;48.476;8.310;2023-03-12T05:15:45;3.70;;;3.50;;
53299;SDS011;39187;48.476;8.310;2023-03-12T05:18:13;2.70;;;2.53;;
53299;SDS011;39187;48.476;8.310;2023-03-12T05:20:38;2.33;;;2.23;;
53299;SDS011;39187;48.476;8.310;2023-03-12T05:23:04;2.10;;;2.00;;
53299;SDS011;39187;48.476;8.310;2023-03-12T05:25:30;1.90;;;1.80;;
53299;SDS011;39187;48.476;8.310;2023-03-12T05:27:55;1.93;;;1.83;;
53299;SDS011;39187;48.476;8.310;2023-03-12T05:30:21;2.23;;;2.13;;
53299;SDS011;39187;48.476;8.310;2023-03-12T05:32:46;2.23;;;2.13;;
53299;SDS011;39187;48.476;8.310;2023-03-12T05:35:12;1.70;;;1.60;;
53299;SDS011;39187;48.476;8.310;2023-03-12T05:37:38;1.50;;;1.40;;
53299;SDS011;39187;48.476;8.310;2023-03-12T05:40:06;1.13;;;1.13;;
53299;SDS011;39187;48.476;8.310;2023-03-12T05:42:36;1.20;;;1.20;;
53299;SDS011;39187;48.476;8.310;2023-03-12T05:45:03;1.40;;;1.30;;
53299;SDS011;39187;48.476;8.310;2023-03-12T05:47:29;1.10;;;1.10;;
53299;SDS011;39187;48.476;8.310;2023-03-12T05:49:55;1.30;;;1.30;;
53299;SDS011;39187;48.476;8.310;2023-03-12T05:52:20;1.40;;;1.30;;
53299;SDS011;39187;48.476;8.310;2023-03-12T05:54:46;1.70;;;1.60;;
53299;SDS011;39187;48.476;8.310;2023-03-12T05:57:11;1.70;;;1.60;;
53299;SDS011;39187;48.476;8.310;2023-03-12T05:59:37;1.70;;;1.60;;
53299;SDS011;39187;48.476;8.310;2023-03-12T06:02:02;2.90;;;2.10;;
53299;SDS011;39187;48.476;8.310;2023-03-12T06:04:28;3.53;;;1.70;;
53299;SDS011;39187;48.476;8.310;2023-03-12T06:06:54;71.30;;;4.90;;
53299;SDS011;39187;48.476;8.310;2023-03-12T06:09:19;149.50;;;7.93;;
53299;SDS011;39187;48.476;8.310;2023-03-12T06:11:45;87.90;;;7.03;;
53299;SDS011;39187;48.476;8.310;2023-03-12T06:14:11;281.27;;;15.43;;
53299;SDS011;39187;48.476;8.310;2023-03-12T06:16:37;110.97;;;7.70;;
53299;SDS011;39187;48.476;8.310;2023-03-12T06:19:02;269.47;;;14.67;;
53299;SDS011;39187;48.476;8.310;2023-03-12T06:21:30;104.07;;;7.87;;
53299;SDS011;39187;48.476;8.310;2023-03-12T06:23:58;373.70;;;18.90;;
53299;SDS011;39187;48.476;8.310;2023-03-12T06:26:23;170.43;;;8.80;;
53299;SDS011;39187;48.476;8.310;2023-03-12T06:28:50;690.53;;;42.93;;
53299;SDS011;39187;48.476;8.310;2023-03-12T06:31:16;184.23;;;7.60;;
53299;SDS011;39187;48.476;8.310;2023-03-12T06:33:42;544.63;;;28.30;;
53299;SDS011;39187;48.476;8.310;2023-03-12T06:36:08;535.43;;;27.70;;
53299;SDS011;39187;48.476;8.310;2023-03-12T06:38:35;568.37;;;28.63;;
53299;SDS011;39187;48.476;8.310;2023-03-12T06:41:02;520.77;;;33.20;;
53299;SDS011;39187;48.476;8.310;2023-03-12T06:43:31;723.80;;;44.60;;
53299;SDS011;39187;48.476;8.310;2023-03-12T06:45:58;604.17;;;32.37;;
53299;SDS011;39187;48.476;8.310;2023-03-12T06:48:25;300.40;;;12.97;;
53299;SDS011;39187;48.476;8.310;2023-03-12T06:50:51;534.37;;;29.93;;
53299;SDS011;39187;48.476;8.310;2023-03-12T06:53:18;655.97;;;31.90;;
53299;SDS011;39187;48.476;8.310;2023-03-12T06:55:44;606.90;;;29.60;;
53299;SDS011;39187;48.476;8.310;2023-03-12T06:58:10;552.80;;;27.83;;
53299;SDS011;39187;48.476;8.310;2023-03-12T07:00:36;978.50;;;59.17;;
53299;SDS011;39187;48.476;8.310;2023-03-12T07:03:02;905.10;;;46.70;;
53299;SDS011;39187;48.476;8.310;2023-03-12T07:05:27;870.07;;;49.33;;
53299;SDS011;39187;48.476;8.310;2023-03-12T07:07:53;678.60;;;33.57;;
53299;SDS011;39187;48.476;8.310;2023-03-12T07:10:19;550.93;;;28.80;;
53299;SDS011;39187;48.476;8.310;2023-03-12T07:12:45;318.90;;;19.20;;
53299;SDS011;39187;48.476;8.310;2023-03-12T07:15:11;563.73;;;26.30;;
53299;SDS011;39187;48.476;8.310;2023-03-12T07:17:36;586.10;;;32.33;;
53299;SDS011;39187;48.476;8.310;2023-03-12T07:20:02;651.90;;;35.53;;
53299;SDS011;39187;48.476;8.310;2023-03-12T07:22:28;483.93;;;22.87;;
53299;SDS011;39187;48.476;8.310;2023-03-12T07:24:54;906.73;;;48.43;;
53299;SDS011;39187;48.476;8.310;2023-03-12T07:27:19;482.67;;;26.57;;
53299;SDS011;39187;48.476;8.310;2023-03-12T07:29:45;613.50;;;36.87;;
53299;SDS011;39187;48.476;8.310;2023-03-12T07:32:10;640.43;;;36.80;;
53299;SDS011;39187;48.476;8.310;2023-03-12T07:34:36;622.30;;;33.47;;
53299;SDS011;39187;48.476;8.310;2023-03-12T07:37:01;429.67;;;22.87;;
53299;SDS011;39187;48.476;8.310;2023-03-12T07:39:27;531.80;;;26.07;;
53299;SDS011;39187;48.476;8.310;2023-03-12T07:41:53;572.87;;;29.80;;
53299;SDS011;39187;48.476;8.310;2023-03-12T07:44:18;594.27;;;34.03;;
53299;SDS011;39187;48.476;8.310;2023-03-12T07:46:44;693.30;;;34.40;;
53299;SDS011;39187;48.476;8.310;2023-03-12T07:49:09;488.17;;;25.97;;
53299;SDS011;39187;48.476;8.310;2023-03-12T07:51:35;526.57;;;24.47;;
53299;SDS011;39187;48.476;8.310;2023-03-12T07:54:00;460.37;;;22.60;;
53299;SDS011;39187;48.476;8.310;2023-03-12T07:56:26;539.33;;;29.87;;
53299;SDS011;39187;48.476;8.310;2023-03-12T07:58:51;483.17;;;23.27;;
53299;SDS011;39187;48.476;8.310;2023-03-12T08:01:17;263.17;;;14.03;;
53299;SDS011;39187;48.476;8.310;2023-03-12T08:03:43;110.27;;;8.17;;
53299;SDS011;39187;48.476;8.310;2023-03-12T08:06:08;38.67;;;2.80;;
53299;SDS011;39187;48.476;8.310;2023-03-12T08:08:34;2.83;;;1.73;;
53299;SDS011;39187;48.476;8.310;2023-03-12T08:11:02;4.33;;;2.20;;
53299;SDS011;39187;48.476;8.310;2023-03-12T08:13:28;2.67;;;1.30;;
53299;SDS011;39187;48.476;8.310;2023-03-12T08:15:54;2.60;;;1.00;;
53299;SDS011;39187;48.476;8.310;2023-03-12T08:18:20;1.40;;;1.30;;
53299;SDS011;39187;48.476;8.310;2023-03-12T08:20:48;1.07;;;1.07;;
53299;SDS011;39187;48.476;8.310;2023-03-12T08:23:15;1.83;;;1.00;;
53299;SDS011;39187;48.476;8.310;2023-03-12T08:25:43;3.23;;;1.40;;
53299;SDS011;39187;48.476;8.310;2023-03-12T08:28:11;1.53;;;1.33;;
53299;SDS011;39187;48.476;8.310;2023-03-12T08:30:36;18.73;;;2.23;;
53299;SDS011;39187;48.476;8.310;2023-03-12T08:33:03;45.93;;;3.27;;
53299;SDS011;39187;48.476;8.310;2023-03-12T08:35:28;13.63;;;1.90;;
53299;SDS011;39187;48.476;8.310;2023-03-12T08:37:54;14.77;;;1.97;;
53299;SDS011;39187;48.476;8.310;2023-03-12T08:40:21;3.27;;;2.10;;
53299;SDS011;39187;48.476;8.310;2023-03-12T08:42:50;97.83;;;6.20;;
53299;SDS011;39187;48.476;8.310;2023-03-12T08:45:15;14.20;;;2.77;;
53299;SDS011;39187;48.476;8.310;2023-03-12T08:47:41;86.73;;;7.10;;
53299;SDS011;39187;48.476;8.310;2023-03-12T08:50:09;263.37;;;16.03;;
53299;SDS011;39187;48.476;8.310;2023-03-12T08:52:37;120.30;;;8.80;;
53299;SDS011;39187;48.476;8.310;2023-03-12T08:55:03;207.67;;;14.20;;
53299;SDS011;39187;48.476;8.310;2023-03-12T08:57:30;198.17;;;12.30;;
53299;SDS011;39187;48.476;8.310;2023-03-12T08:59:56;77.67;;;7.23;;
53299;SDS011;39187;48.476;8.310;2023-03-12T09:02:21;321.77;;;14.00;;
53299;SDS011;39187;48.476;8.310;2023-03-12T09:04:47;340.43;;;18.87;;
53299;SDS011;39187;48.476;8.310;2023-03-12T09:07:13;199.03;;;11.57;;
53299;SDS011;39187;48.476;8.310;2023-03-12T09:09:39;283.93;;;17.13;;
53299;SDS011;39187;48.476;8.310;2023-03-12T09:12:04;58.73;;;5.00;;
53299;SDS011;39187;48.476;8.310;2023-03-12T09:14:30;37.13;;;3.17;;
53299;SDS011;39187;48.476;8.310;2023-03-12T09:16:56;33.77;;;4.77;;
53299;SDS011;39187;48.476;8.310;2023-03-12T09:19:22;89.17;;;6.13;;
53299;SDS011;39187;48.476;8.310;2023-03-12T09:21:47;102.70;;;7.17;;
53299;SDS011;39187;48.476;8.310;2023-03-12T09:24:13;445.73;;;26.53;;
53299;SDS011;39187;48.476;8.310;2023-03-12T09:26:39;314.50;;;18.60;;
53299;SDS011;39187;48.476;8.310;2023-03-12T09:29:04;518.30;;;26.80;;
53299;SDS011;39187;48.476;8.310;2023-03-12T09:31:30;299.27;;;17.53;;
53299;SDS011;39187;48.476;8.310;2023-03-12T09:33:56;224.60;;;10.57;;
53299;SDS011;39187;48.476;8.310;2023-03-12T09:36:22;369.03;;;21.23;;
53299;SDS011;39187;48.476;8.310;2023-03-12T09:38:47;143.70;;;7.90;;
53299;SDS011;39187;48.476;8.310;2023-03-12T09:41:17;31.37;;;3.60;;
53299;SDS011;39187;48.476;8.310;2023-03-12T09:46:45;222.10;;;14.80;;
53299;SDS011;39187;48.476;8.310;2023-03-12T09:49:33;312.23;;;16.53;;
53299;SDS011;39187;48.476;8.310;2023-03-12T09:52:07;122.67;;;9.00;;
53299;SDS011;39187;48.476;8.310;2023-03-12T09:55:06;47.07;;;7.17;;
53299;SDS011;39187;48.476;8.310;2023-03-12T09:57:44;114.30;;;10.87;;
53299;SDS011;39187;48.476;8.310;2023-03-12T10:00:12;83.33;;;5.90;;
53299;SDS011;39187;48.476;8.310;2023-03-12T10:08:28;6.40;;;2.43;;
53299;SDS011;39187;48.476;8.310;2023-03-12T10:17:21;3.00;;;2.50;;
53299;SDS011;39187;48.476;8.310;2023-03-12T10:20:01;9.03;;;3.03;;
53299;SDS011;39187;48.476;8.310;2023-03-12T10:22:45;14.07;;;3.60;;
53299;SDS011;39187;48.476;8.310;2023-03-12T10:25:41;5.50;;;2.93;;
53299;SDS011;39187;48.476;8.310;2023-03-12T10:28:11;4.30;;;2.63;;
53299;SDS011;39187;48.476;8.310;2023-03-12T10:30:39;7.03;;;3.20;;
53299;SDS011;39187;48.476;8.310;2023-03-12T10:33:11;5.33;;;3.30;;
53299;SDS011;39187;48.476;8.310;2023-03-12T10:35:39;21.43;;;3.97;;
53299;SDS011;39187;48.476;8.310;2023-03-12T10:38:09;12.83;;;3.30;;
53299;SDS011;39187;48.476;8.310;2023-03-12T10:40:50;4.87;;;3.63;;
53299;SDS011;39187;48.476;8.310;2023-03-12T10:43:16;13.63;;;4.53;;
53299;SDS011;39187;48.476;8.310;2023-03-12T10:49:27;5.87;;;3.10;;
53299;SDS011;39187;48.476;8.310;2023-03-12T10:54:28;6.83;;;3.93;;
53299;SDS011;39187;48.476;8.310;2023-03-12T10:57:05;7.00;;;3.47;;
53299;SDS011;39187;48.476;8.310;2023-03-12T10:59:33;10.43;;;2.73;;
53299;SDS011;39187;48.476;8.310;2023-03-12T11:02:01;12.93;;;4.13;;
53299;SDS011;39187;48.476;8.310;2023-03-12T11:04:29;19.67;;;5.80;;
53299;SDS011;39187;48.476;8.310;2023-03-12T11:07:03;9.23;;;3.23;;
53299;SDS011;39187;48.476;8.310;2023-03-12T11:09:38;10.07;;;3.60;;
53299;SDS011;39187;48.476;8.310;2023-03-12T11:14:50;4.70;;;2.87;;
53299;SDS011;39187;48.476;8.310;2023-03-12T11:17:34;6.93;;;3.33;;
53299;SDS011;39187;48.476;8.310;2023-03-12T11:19:59;12.73;;;3.17;;
53299;SDS011;39187;48.476;8.310;2023-03-12T11:22:47;9.03;;;3.30;;
53299;SDS011;39187;48.476;8.310;2023-03-12T11:25:23;10.17;;;3.47;;
53299;SDS011;39187;48.476;8.310;2023-03-12T11:27:55;9.47;;;3.23;;
53299;SDS011;39187;48.476;8.310;2023-03-12T11:30:31;11.23;;;3.37;;
53299;SDS011;39187;48.476;8.310;2023-03-12T11:33:01;8.60;;;2.90;;
53299;SDS011;39187;48.476;8.310;2023-03-12T11:38:19;7.43;;;2.60;;
53299;SDS011;39187;48.476;8.310;2023-03-12T11:43:52;10.03;;;3.10;;
53299;SDS011;39187;48.476;8.310;2023-03-12T12:00:25;17.63;;;3.10;;
53299;SDS011;39187;48.476;8.310;2023-03-12T12:03:11;8.90;;;2.40;;
53299;SDS011;39187;48.476;8.310;2023-03-12T12:08:37;10.13;;;2.80;;
53299;SDS011;39187;48.476;8.310;2023-03-12T12:31:40;4.30;;;2.77;;
53299;SDS011;39187;48.476;8.310;2023-03-12T12:34:04;6.07;;;3.10;;
53299;SDS011;39187;48.476;8.310;2023-03-12T12:36:37;10.20;;;3.00;;
53299;SDS011;39187;48.476;8.310;2023-03-12T12:42:03;12.07;;;2.47;;
53299;SDS011;39187;48.476;8.310;2023-03-12T12:44:33;9.40;;;2.30;;
53299;SDS011;39187;48.476;8.310;2023-03-12T12:47:05;4.70;;;2.30;;
53299;SDS011;39187;48.476;8.310;2023-03-12T12:49:43;8.87;;;2.80;;
53299;SDS011;39187;48.476;8.310;2023-03-12T12:52:16;8.53;;;2.80;;
53299;SDS011;39187;48.476;8.310;2023-03-12T12:54:57;11.60;;;3.00;;
53299;SDS011;39187;48.476;8.310;2023-03-12T13:02:38;5.77;;;2.80;;
53299;SDS011;39187;48.476;8.310;2023-03-12T13:05:25;5.50;;;2.47;;
53299;SDS011;39187;48.476;8.310;2023-03-12T13:08:10;11.73;;;2.80;;
53299;SDS011;39187;48.476;8.310;2023-03-12T13:11:22;12.47;;;3.07;;
53299;SDS011;39187;48.476;8.310;2023-03-12T13:13:50;4.20;;;2.63;;
53299;SDS011;39187;48.476;8.310;2023-03-12T13:16:36;7.47;;;2.07;;
53299;SDS011;39187;48.476;8.310;2023-03-12T13:29:43;8.97;;;2.70;;
53299;SDS011;39187;48.476;8.310;2023-03-12T13:35:06;20.70;;;3.03;;
53299;SDS011;39187;48.476;8.310;2023-03-12T13:43:00;7.57;;;2.43;;
53299;SDS011;39187;48.476;8.310;2023-03-12T13:45:59;5.40;;;3.50;;
53299;SDS011;39187;48.476;8.310;2023-03-12T13:48:25;14.97;;;2.70;;
53299;SDS011;39187;48.476;8.310;2023-03-12T13:50:56;7.97;;;2.33;;
53299;SDS011;39187;48.476;8.310;2023-03-12T13:53:32;7.93;;;2.30;;
53299;SDS011;39187;48.476;8.310;2023-03-12T13:56:19;4.13;;;1.70;;
53299;SDS011;39187;48.476;8.310;2023-03-12T13:58:54;7.57;;;2.70;;
53299;SDS011;39187;48.476;8.310;2023-03-12T14:01:25;7.83;;;2.87;;
53299;SDS011;39187;48.476;8.310;2023-03-12T14:04:13;11.10;;;1.90;;
53299;SDS011;39187;48.476;8.310;2023-03-12T14:06:57;14.23;;;2.47;;
53299;SDS011;39187;48.476;8.310;2023-03-12T14:09:39;16.30;;;2.50;;
53299;SDS011;39187;48.476;8.310;2023-03-12T14:17:35;5.77;;;1.80;;
53299;SDS011;39187;48.476;8.310;2023-03-12T14:20:03;6.37;;;2.30;;
53299;SDS011;39187;48.476;8.310;2023-03-12T14:22:34;15.67;;;2.10;;
53299;SDS011;39187;48.476;8.310;2023-03-12T14:25:11;7.03;;;2.40;;
53299;SDS011;39187;48.476;8.310;2023-03-12T14:27:40;5.63;;;2.27;;
53299;SDS011;39187;48.476;8.310;2023-03-12T14:30:12;4.40;;;2.87;;
53299;SDS011;39187;48.476;8.310;2023-03-12T14:32:45;4.40;;;2.07;;
53299;SDS011;39187;48.476;8.310;2023-03-12T14:37:57;4.30;;;1.87;;
53299;SDS011;39187;48.476;8.310;2023-03-12T14:43:25;4.90;;;3.30;;
53299;SDS011;39187;48.476;8.310;2023-03-12T14:45:53;5.43;;;2.10;;
53299;SDS011;39187;48.476;8.310;2023-03-12T14:48:42;7.67;;;2.17;;
53299;SDS011;39187;48.476;8.310;2023-03-12T14:51:21;5.70;;;1.83;;
53299;SDS011;39187;48.476;8.310;2023-03-12T14:53:46;7.13;;;2.63;;
53299;SDS011;39187;48.476;8.310;2023-03-12T14:56:34;6.63;;;1.70;;
53299;SDS011;39187;48.476;8.310;2023-03-12T14:59:01;7.20;;;2.10;;
53299;SDS011;39187;48.476;8.310;2023-03-12T15:01:45;6.00;;;1.97;;
53299;SDS011;39187;48.476;8.310;2023-03-12T15:04:15;5.77;;;3.03;;
53299;SDS011;39187;48.476;8.310;2023-03-12T15:06:53;5.50;;;1.73;;
53299;SDS011;39187;48.476;8.310;2023-03-12T15:09:22;11.60;;;1.60;;
53299;SDS011;39187;48.476;8.310;2023-03-12T15:11:53;7.83;;;1.60;;
53299;SDS011;39187;48.476;8.310;2023-03-12T15:14:21;4.97;;;1.53;;
53299;SDS011;39187;48.476;8.310;2023-03-12T15:16:48;6.40;;;1.90;;
53299;SDS011;39187;48.476;8.310;2023-03-12T15:19:15;7.53;;;2.50;;
53299;SDS011;39187;48.476;8.310;2023-03-12T15:21:45;2.30;;;1.80;;
53299;SDS011;39187;48.476;8.310;2023-03-12T15:24:12;6.60;;;1.97;;
53299;SDS011;39187;48.476;8.310;2023-03-12T15:26:38;7.17;;;2.60;;
53299;SDS011;39187;48.476;8.310;2023-03-12T15:29:24;9.53;;;2.33;;
53299;SDS011;39187;48.476;8.310;2023-03-12T15:31:58;10.70;;;2.07;;
53299;SDS011;39187;48.476;8.310;2023-03-12T15:34:34;4.73;;;1.70;;
53299;SDS011;39187;48.476;8.310;2023-03-12T15:37:02;6.10;;;1.77;;
53299;SDS011;39187;48.476;8.310;2023-03-12T15:39:45;9.73;;;1.63;;
53299;SDS011;39187;48.476;8.310;2023-03-12T15:42:16;11.53;;;2.80;;
53299;SDS011;39187;48.476;8.310;2023-03-12T15:44:46;8.77;;;2.17;;
53299;SDS011;39187;48.476;8.310;2023-03-12T15:47:15;8.40;;;2.30;;
53299;SDS011;39187;48.476;8.310;2023-03-12T15:49:47;3.83;;;1.93;;
53299;SDS011;39187;48.476;8.310;2023-03-12T15:57:24;9.73;;;2.43;;
53299;SDS011;39187;48.476;8.310;2023-03-12T16:05:41;10.80;;;1.93;;
53299;SDS011;39187;48.476;8.310;2023-03-12T16:08:14;10.20;;;2.70;;
53299;SDS011;39187;48.476;8.310;2023-03-12T16:11:00;15.33;;;3.23;;
53299;SDS011;39187;48.476;8.310;2023-03-12T16:13:26;9.43;;;3.33;;
53299;SDS011;39187;48.476;8.310;2023-03-12T16:15:55;17.70;;;3.67;;
53299;SDS011;39187;48.476;8.310;2023-03-12T16:18:21;8.03;;;2.40;;
53299;SDS011;39187;48.476;8.310;2023-03-12T16:20:48;7.90;;;2.37;;
53299;SDS011;39187;48.476;8.310;2023-03-12T16:23:15;6.73;;;2.43;;
53299;SDS011;39187;48.476;8.310;2023-03-12T16:25:45;10.00;;;2.73;;
53299;SDS011;39187;48.476;8.310;2023-03-12T16:28:14;10.37;;;2.90;;
53299;SDS011;39187;48.476;8.310;2023-03-12T16:30:43;2.80;;;2.40;;
53299;SDS011;39187;48.476;8.310;2023-03-12T16:33:12;8.60;;;3.20;;
53299;SDS011;39187;48.476;8.310;2023-03-12T16:35:39;8.47;;;2.33;;
53299;SDS011;39187;48.476;8.310;2023-03-12T16:38:05;10.83;;;3.83;;
53299;SDS011;39187;48.476;8.310;2023-03-12T16:40:32;6.87;;;2.43;;
53299;SDS011;39187;48.476;8.310;2023-03-12T16:43:00;12.10;;;1.90;;
53299;SDS011;39187;48.476;8.310;2023-03-12T16:45:28;12.43;;;2.70;;
53299;SDS011;39187;48.476;8.310;2023-03-12T16:47:57;13.00;;;2.47;;
53299;SDS011;39187;48.476;8.310;2023-03-12T16:50:24;4.47;;;2.17;;
53299;SDS011;39187;48.476;8.310;2023-03-12T16:52:51;9.20;;;2.47;;
53299;SDS011;39187;48.476;8.310;2023-03-12T16:55:17;7.33;;;2.40;;
53299;SDS011;39187;48.476;8.310;2023-03-12T16:57:50;6.20;;;1.80;;